sensor_id;sensor_type;location;lat;lon;timestamp;temperature;humidity
60293;DHT22;52402;52.670;6.750;2023-02-24T00:01:52;3.10;99.90
60293;DHT22;52402;52.670;6.750;2023-02-24T00:04:25;3.20;99.90
60293;DHT22;52402;52.670;6.750;2023-02-24T00:06:50;3.10;99.90
60293;DHT22;52402;52.670;6.750;2023-02-24T00:09:19;3.10;99.90
60293;DHT22;52402;52.670;6.750;2023-02-24T00:11:51;3.10;99.90
60293;DHT22;52402;52.670;6.750;2023-02-24T00:14:17;3.00;99.90
60293;DHT22;52402;52.670;6.750;2023-02-24T00:16:46;3.00;99.90
60293;DHT22;52402;52.670;6.750;2023-02-24T00:19:16;3.00;99.90
60293;DHT22;52402;52.670;6.750;2023-02-24T00:21:42;3.00;99.90
60293;DHT22;52402;52.670;6.750;2023-02-24T00:24:08;3.00;99.90
60293;DHT22;52402;52.670;6.750;2023-02-24T00:26:34;2.90;99.90
60293;DHT22;52402;52.670;6.750;2023-02-24T00:29:04;2.90;99.90
60293;DHT22;52402;52.670;6.750;2023-02-24T00:31:30;2.90;99.90
60293;DHT22;52402;52.670;6.750;2023-02-24T00:33:58;2.90;99.90
60293;DHT22;52402;52.670;6.750;2023-02-24T00:36:25;2.90;99.90
60293;DHT22;52402;52.670;6.750;2023-02-24T00:38:56;2.80;99.90
60293;DHT22;52402;52.670;6.750;2023-02-24T00:41:25;2.90;99.90
60293;DHT22;52402;52.670;6.750;2023-02-24T00:43:54;2.90;99.90
60293;DHT22;52402;52.670;6.750;2023-02-24T00:46:22;2.90;99.90
60293;DHT22;52402;52.670;6.750;2023-02-24T00:48:51;3.00;99.90
60293;DHT22;52402;52.670;6.750;2023-02-24T00:51:23;3.00;99.90
60293;DHT22;52402;52.670;6.750;2023-02-24T00:53:50;3.00;99.90
60293;DHT22;52402;52.670;6.750;2023-02-24T00:56:16;3.00;99.90
60293;DHT22;52402;52.670;6.750;2023-02-24T00:58:43;3.00;99.90
60293;DHT22;52402;52.670;6.750;2023-02-24T01:01:21;3.00;99.90
60293;DHT22;52402;52.670;6.750;2023-02-24T01:03:49;3.00;99.90
60293;DHT22;52402;52.670;6.750;2023-02-24T01:06:17;3.00;99.90
60293;DHT22;52402;52.670;6.750;2023-02-24T01:08:49;3.00;99.90
60293;DHT22;52402;52.670;6.750;2023-02-24T01:11:19;3.00;99.90
60293;DHT22;52402;52.670;6.750;2023-02-24T01:14:09;2.90;99.90
60293;DHT22;52402;52.670;6.750;2023-02-24T01:16:35;2.90;99.90
60293;DHT22;52402;52.670;6.750;2023-02-24T01:19:02;2.80;99.90
60293;DHT22;52402;52.670;6.750;2023-02-24T01:21:29;2.80;99.90
60293;DHT22;52402;52.670;6.750;2023-02-24T01:23:55;2.80;99.90
60293;DHT22;52402;52.670;6.750;2023-02-24T01:26:21;2.70;99.90
60293;DHT22;52402;52.670;6.750;2023-02-24T01:28:47;2.70;99.90
60293;DHT22;52402;52.670;6.750;2023-02-24T01:31:15;2.60;99.90
60293;DHT22;52402;52.670;6.750;2023-02-24T01:33:46;2.60;99.90
60293;DHT22;52402;52.670;6.750;2023-02-24T01:36:21;2.60;99.90
60293;DHT22;52402;52.670;6.750;2023-02-24T01:38:47;2.50;99.90
60293;DHT22;52402;52.670;6.750;2023-02-24T01:41:23;2.50;99.90
60293;DHT22;52402;52.670;6.750;2023-02-24T01:44:02;2.50;99.90
60293;DHT22;52402;52.670;6.750;2023-02-24T01:46:32;2.40;99.90
60293;DHT22;52402;52.670;6.750;2023-02-24T01:49:07;2.40;99.90
60293;DHT22;52402;52.670;6.750;2023-02-24T01:51:42;2.40;99.90
60293;DHT22;52402;52.670;6.750;2023-02-24T01:54:11;2.30;99.90
60293;DHT22;52402;52.670;6.750;2023-02-24T01:56:38;2.40;99.90
60293;DHT22;52402;52.670;6.750;2023-02-24T01:59:06;2.40;99.90
60293;DHT22;52402;52.670;6.750;2023-02-24T02:01:34;2.40;99.90
60293;DHT22;52402;52.670;6.750;2023-02-24T02:04:11;2.40;99.90
60293;DHT22;52402;52.670;6.750;2023-02-24T02:06:41;2.40;99.90
60293;DHT22;52402;52.670;6.750;2023-02-24T02:09:06;2.50;99.90
60293;DHT22;52402;52.670;6.750;2023-02-24T02:11:34;2.50;99.90
60293;DHT22;52402;52.670;6.750;2023-02-24T02:13:59;2.50;99.90
60293;DHT22;52402;52.670;6.750;2023-02-24T02:25:07;2.70;99.90
60293;DHT22;52402;52.670;6.750;2023-02-24T02:32:54;2.80;99.90
60293;DHT22;52402;52.670;6.750;2023-02-24T02:35:43;2.80;99.90
60293;DHT22;52402;52.670;6.750;2023-02-24T02:38:35;2.80;99.90
60293;DHT22;52402;52.670;6.750;2023-02-24T02:46:31;2.90;99.90
60293;DHT22;52402;52.670;6.750;2023-02-24T02:49:20;3.00;99.90
60293;DHT22;52402;52.670;6.750;2023-02-24T02:51:54;3.00;99.90
60293;DHT22;52402;52.670;6.750;2023-02-24T02:59:34;3.00;99.90
60293;DHT22;52402;52.670;6.750;2023-02-24T03:02:02;3.00;99.90
60293;DHT22;52402;52.670;6.750;2023-02-24T03:04:48;3.00;99.90
60293;DHT22;52402;52.670;6.750;2023-02-24T03:07:16;3.00;99.90
60293;DHT22;52402;52.670;6.750;2023-02-24T03:09:48;3.00;99.90
60293;DHT22;52402;52.670;6.750;2023-02-24T03:12:18;3.00;99.90
60293;DHT22;52402;52.670;6.750;2023-02-24T03:14:50;3.00;99.90
60293;DHT22;52402;52.670;6.750;2023-02-24T03:17:21;3.00;99.90
60293;DHT22;52402;52.670;6.750;2023-02-24T03:19:52;3.00;99.90
60293;DHT22;52402;52.670;6.750;2023-02-24T03:22:33;3.00;99.90
60293;DHT22;52402;52.670;6.750;2023-02-24T03:25:01;3.00;99.90
60293;DHT22;52402;52.670;6.750;2023-02-24T03:28:07;3.00;99.90
60293;DHT22;52402;52.670;6.750;2023-02-24T03:30:41;3.00;99.90
60293;DHT22;52402;52.670;6.750;2023-02-24T03:35:41;2.90;99.90
60293;DHT22;52402;52.670;6.750;2023-02-24T03:38:08;2.90;99.90
60293;DHT22;52402;52.670;6.750;2023-02-24T03:40:37;2.90;99.90
60293;DHT22;52402;52.670;6.750;2023-02-24T03:43:23;2.90;99.90
60293;DHT22;52402;52.670;6.750;2023-02-24T03:45:53;2.90;99.90
60293;DHT22;52402;52.670;6.750;2023-02-24T03:48:20;2.90;99.90
60293;DHT22;52402;52.670;6.750;2023-02-24T03:50:47;2.90;99.90
60293;DHT22;52402;52.670;6.750;2023-02-24T03:56:14;2.90;99.90
60293;DHT22;52402;52.670;6.750;2023-02-24T04:02:07;2.90;99.90
60293;DHT22;52402;52.670;6.750;2023-02-24T04:04:41;2.90;99.90
60293;DHT22;52402;52.670;6.750;2023-02-24T04:10:10;2.90;99.90
60293;DHT22;52402;52.670;6.750;2023-02-24T04:12:48;2.90;99.90
60293;DHT22;52402;52.670;6.750;2023-02-24T04:15:22;2.90;99.90
60293;DHT22;52402;52.670;6.750;2023-02-24T04:17:56;2.90;99.90
60293;DHT22;52402;52.670;6.750;2023-02-24T04:20:26;3.00;99.90
60293;DHT22;52402;52.670;6.750;2023-02-24T04:23:06;3.00;99.90
60293;DHT22;52402;52.670;6.750;2023-02-24T04:25:33;3.00;99.90
60293;DHT22;52402;52.670;6.750;2023-02-24T04:28:00;3.00;99.90
60293;DHT22;52402;52.670;6.750;2023-02-24T04:30:30;3.00;99.90
60293;DHT22;52402;52.670;6.750;2023-02-24T04:32:58;3.00;99.90
60293;DHT22;52402;52.670;6.750;2023-02-24T04:35:24;3.00;99.90
60293;DHT22;52402;52.670;6.750;2023-02-24T04:37:54;3.00;99.90
60293;DHT22;52402;52.670;6.750;2023-02-24T04:40:20;3.00;99.90
60293;DHT22;52402;52.670;6.750;2023-02-24T04:42:49;3.10;99.90
60293;DHT22;52402;52.670;6.750;2023-02-24T04:45:26;3.00;99.90
60293;DHT22;52402;52.670;6.750;2023-02-24T04:47:54;3.10;99.90
60293;DHT22;52402;52.670;6.750;2023-02-24T04:50:22;3.00;99.90
60293;DHT22;52402;52.670;6.750;2023-02-24T04:52:54;3.00;99.90
60293;DHT22;52402;52.670;6.750;2023-02-24T04:55:22;3.10;99.90
60293;DHT22;52402;52.670;6.750;2023-02-24T04:57:51;3.10;99.90
60293;DHT22;52402;52.670;6.750;2023-02-24T05:00:17;3.10;99.90
60293;DHT22;52402;52.670;6.750;2023-02-24T05:02:53;3.10;99.90
60293;DHT22;52402;52.670;6.750;2023-02-24T05:05:21;3.10;99.90
60293;DHT22;52402;52.670;6.750;2023-02-24T05:07:51;3.10;99.90
60293;DHT22;52402;52.670;6.750;2023-02-24T05:10:17;3.10;99.90
60293;DHT22;52402;52.670;6.750;2023-02-24T05:12:43;3.10;99.90
60293;DHT22;52402;52.670;6.750;2023-02-24T05:15:10;3.10;99.90
60293;DHT22;52402;52.670;6.750;2023-02-24T05:17:36;3.10;99.90
60293;DHT22;52402;52.670;6.750;2023-02-24T05:20:03;3.10;99.90
60293;DHT22;52402;52.670;6.750;2023-02-24T05:22:49;3.10;99.90
60293;DHT22;52402;52.670;6.750;2023-02-24T05:25:19;3.10;99.90
60293;DHT22;52402;52.670;6.750;2023-02-24T05:27:45;3.20;99.90
60293;DHT22;52402;52.670;6.750;2023-02-24T05:30:12;3.20;99.90
60293;DHT22;52402;52.670;6.750;2023-02-24T05:32:39;3.20;99.90
60293;DHT22;52402;52.670;6.750;2023-02-24T05:35:05;3.20;99.90
60293;DHT22;52402;52.670;6.750;2023-02-24T05:37:31;3.20;99.90
60293;DHT22;52402;52.670;6.750;2023-02-24T05:39:58;3.20;99.90
60293;DHT22;52402;52.670;6.750;2023-02-24T05:42:28;3.20;99.90
60293;DHT22;52402;52.670;6.750;2023-02-24T05:44:59;3.20;99.90
60293;DHT22;52402;52.670;6.750;2023-02-24T05:47:25;3.20;99.90
60293;DHT22;52402;52.670;6.750;2023-02-24T05:49:52;3.20;99.90
60293;DHT22;52402;52.670;6.750;2023-02-24T05:52:21;3.20;99.90
60293;DHT22;52402;52.670;6.750;2023-02-24T05:54:47;3.30;99.90
60293;DHT22;52402;52.670;6.750;2023-02-24T05:57:18;3.30;99.90
60293;DHT22;52402;52.670;6.750;2023-02-24T05:59:49;3.30;99.90
60293;DHT22;52402;52.670;6.750;2023-02-24T06:02:17;3.30;99.90
60293;DHT22;52402;52.670;6.750;2023-02-24T06:04:52;3.30;99.90
60293;DHT22;52402;52.670;6.750;2023-02-24T06:07:23;3.30;99.90
60293;DHT22;52402;52.670;6.750;2023-02-24T06:09:52;3.30;99.90
60293;DHT22;52402;52.670;6.750;2023-02-24T06:12:20;3.30;99.90
60293;DHT22;52402;52.670;6.750;2023-02-24T06:14:46;3.30;99.90
60293;DHT22;52402;52.670;6.750;2023-02-24T06:17:14;3.30;99.90
60293;DHT22;52402;52.670;6.750;2023-02-24T06:19:42;3.40;99.90
60293;DHT22;52402;52.670;6.750;2023-02-24T06:22:12;3.30;99.90
60293;DHT22;52402;52.670;6.750;2023-02-24T06:24:38;3.40;99.90
60293;DHT22;52402;52.670;6.750;2023-02-24T06:27:12;3.40;99.90
60293;DHT22;52402;52.670;6.750;2023-02-24T06:29:48;3.40;99.90
60293;DHT22;52402;52.670;6.750;2023-02-24T06:32:21;3.40;99.90
60293;DHT22;52402;52.670;6.750;2023-02-24T06:34:48;3.40;99.90
60293;DHT22;52402;52.670;6.750;2023-02-24T06:37:15;3.40;99.90
60293;DHT22;52402;52.670;6.750;2023-02-24T06:39:41;3.40;99.90
60293;DHT22;52402;52.670;6.750;2023-02-24T06:42:08;3.40;99.90
60293;DHT22;52402;52.670;6.750;2023-02-24T06:44:37;3.40;99.90
60293;DHT22;52402;52.670;6.750;2023-02-24T06:47:04;3.40;99.90
60293;DHT22;52402;52.670;6.750;2023-02-24T06:49:30;3.40;99.90
60293;DHT22;52402;52.670;6.750;2023-02-24T06:51:57;3.50;99.90
60293;DHT22;52402;52.670;6.750;2023-02-24T06:54:25;3.40;99.90
60293;DHT22;52402;52.670;6.750;2023-02-24T06:56:53;3.40;99.90
60293;DHT22;52402;52.670;6.750;2023-02-24T06:59:19;3.40;99.90
60293;DHT22;52402;52.670;6.750;2023-02-24T07:01:48;3.40;99.90
60293;DHT22;52402;52.670;6.750;2023-02-24T07:04:15;3.40;99.90
60293;DHT22;52402;52.670;6.750;2023-02-24T07:06:43;3.40;99.90
60293;DHT22;52402;52.670;6.750;2023-02-24T07:09:11;3.40;99.90
60293;DHT22;52402;52.670;6.750;2023-02-24T07:11:38;3.40;99.90
60293;DHT22;52402;52.670;6.750;2023-02-24T07:14:08;3.40;99.90
60293;DHT22;52402;52.670;6.750;2023-02-24T07:16:34;3.40;99.90
60293;DHT22;52402;52.670;6.750;2023-02-24T07:19:02;3.40;99.90
60293;DHT22;52402;52.670;6.750;2023-02-24T07:21:30;3.40;99.90
60293;DHT22;52402;52.670;6.750;2023-02-24T07:24:05;3.40;99.90
60293;DHT22;52402;52.670;6.750;2023-02-24T07:26:31;3.40;99.90
60293;DHT22;52402;52.670;6.750;2023-02-24T07:28:58;3.40;99.90
60293;DHT22;52402;52.670;6.750;2023-02-24T07:31:29;3.40;99.90
60293;DHT22;52402;52.670;6.750;2023-02-24T07:33:56;3.50;99.90
60293;DHT22;52402;52.670;6.750;2023-02-24T07:36:23;3.50;99.90
60293;DHT22;52402;52.670;6.750;2023-02-24T07:38:53;3.50;99.90
60293;DHT22;52402;52.670;6.750;2023-02-24T07:41:20;3.50;99.90
60293;DHT22;52402;52.670;6.750;2023-02-24T07:43:50;3.50;99.90
60293;DHT22;52402;52.670;6.750;2023-02-24T07:46:26;3.50;99.90
60293;DHT22;52402;52.670;6.750;2023-02-24T07:48:55;3.60;99.90
60293;DHT22;52402;52.670;6.750;2023-02-24T07:51:25;3.50;99.90
60293;DHT22;52402;52.670;6.750;2023-02-24T07:53:53;3.50;99.90
60293;DHT22;52402;52.670;6.750;2023-02-24T07:56:22;3.50;99.90
60293;DHT22;52402;52.670;6.750;2023-02-24T07:59:02;3.50;99.90
60293;DHT22;52402;52.670;6.750;2023-02-24T08:01:31;3.50;99.90
60293;DHT22;52402;52.670;6.750;2023-02-24T08:04:05;3.50;99.90
60293;DHT22;52402;52.670;6.750;2023-02-24T08:06:38;3.50;99.90
60293;DHT22;52402;52.670;6.750;2023-02-24T08:11:49;3.60;99.90
60293;DHT22;52402;52.670;6.750;2023-02-24T08:14:18;3.60;99.90
60293;DHT22;52402;52.670;6.750;2023-02-24T08:16:46;3.50;99.90
60293;DHT22;52402;52.670;6.750;2023-02-24T08:19:15;3.60;99.90
60293;DHT22;52402;52.670;6.750;2023-02-24T08:21:47;3.60;99.90
60293;DHT22;52402;52.670;6.750;2023-02-24T08:24:17;3.60;99.90
60293;DHT22;52402;52.670;6.750;2023-02-24T08:26:46;3.60;99.90
60293;DHT22;52402;52.670;6.750;2023-02-24T08:29:18;3.60;99.90
60293;DHT22;52402;52.670;6.750;2023-02-24T08:31:45;3.60;99.90
60293;DHT22;52402;52.670;6.750;2023-02-24T08:34:11;3.60;99.90
60293;DHT22;52402;52.670;6.750;2023-02-24T08:36:41;3.60;99.90
60293;DHT22;52402;52.670;6.750;2023-02-24T08:39:13;3.60;99.90
60293;DHT22;52402;52.670;6.750;2023-02-24T08:41:39;3.60;99.90
60293;DHT22;52402;52.670;6.750;2023-02-24T08:44:16;3.70;99.90
60293;DHT22;52402;52.670;6.750;2023-02-24T08:46:45;3.70;99.90
60293;DHT22;52402;52.670;6.750;2023-02-24T08:49:14;3.70;99.90
60293;DHT22;52402;52.670;6.750;2023-02-24T08:51:43;3.70;99.90
60293;DHT22;52402;52.670;6.750;2023-02-24T08:54:15;3.70;99.90
60293;DHT22;52402;52.670;6.750;2023-02-24T08:56:43;3.70;99.90
60293;DHT22;52402;52.670;6.750;2023-02-24T08:59:14;3.70;99.90
60293;DHT22;52402;52.670;6.750;2023-02-24T09:01:59;3.70;99.90
60293;DHT22;52402;52.670;6.750;2023-02-24T09:05:06;3.80;99.90
60293;DHT22;52402;52.670;6.750;2023-02-24T09:07:39;3.80;99.90
60293;DHT22;52402;52.670;6.750;2023-02-24T09:10:10;3.80;99.90
60293;DHT22;52402;52.670;6.750;2023-02-24T09:12:38;3.80;99.90
60293;DHT22;52402;52.670;6.750;2023-02-24T09:15:07;3.90;99.90
60293;DHT22;52402;52.670;6.750;2023-02-24T09:17:33;3.90;99.90
60293;DHT22;52402;52.670;6.750;2023-02-24T09:20:09;3.90;99.90
60293;DHT22;52402;52.670;6.750;2023-02-24T09:22:55;3.90;99.90
60293;DHT22;52402;52.670;6.750;2023-02-24T09:25:23;4.00;99.90
60293;DHT22;52402;52.670;6.750;2023-02-24T09:28:03;4.00;99.90
60293;DHT22;52402;52.670;6.750;2023-02-24T09:30:33;4.00;99.90
60293;DHT22;52402;52.670;6.750;2023-02-24T09:33:06;4.00;99.90
60293;DHT22;52402;52.670;6.750;2023-02-24T09:35:35;4.00;99.90
60293;DHT22;52402;52.670;6.750;2023-02-24T09:38:06;4.00;99.90
60293;DHT22;52402;52.670;6.750;2023-02-24T09:40:33;4.00;99.90
60293;DHT22;52402;52.670;6.750;2023-02-24T09:43:24;4.10;99.90
60293;DHT22;52402;52.670;6.750;2023-02-24T09:46:05;4.10;99.90
60293;DHT22;52402;52.670;6.750;2023-02-24T09:48:50;4.20;99.90
60293;DHT22;52402;52.670;6.750;2023-02-24T09:51:19;4.20;99.90
60293;DHT22;52402;52.670;6.750;2023-02-24T09:53:48;4.20;99.90
60293;DHT22;52402;52.670;6.750;2023-02-24T09:56:27;4.20;99.90
60293;DHT22;52402;52.670;6.750;2023-02-24T09:59:02;4.30;99.90
60293;DHT22;52402;52.670;6.750;2023-02-24T10:02:00;4.30;99.90
60293;DHT22;52402;52.670;6.750;2023-02-24T10:05:19;4.30;99.90
60293;DHT22;52402;52.670;6.750;2023-02-24T10:07:37;4.30;99.90
60293;DHT22;52402;52.670;6.750;2023-02-24T10:10:19;4.40;99.90
60293;DHT22;52402;52.670;6.750;2023-02-24T10:13:10;4.40;99.90
60293;DHT22;52402;52.670;6.750;2023-02-24T10:15:43;4.40;99.90
60293;DHT22;52402;52.670;6.750;2023-02-24T10:21:03;4.40;99.90
60293;DHT22;52402;52.670;6.750;2023-02-24T10:24:07;4.40;99.90
60293;DHT22;52402;52.670;6.750;2023-02-24T10:26:53;4.50;99.90
60293;DHT22;52402;52.670;6.750;2023-02-24T10:32:19;4.50;99.90
60293;DHT22;52402;52.670;6.750;2023-02-24T10:34:50;4.50;99.90
60293;DHT22;52402;52.670;6.750;2023-02-24T10:37:20;4.50;99.90
60293;DHT22;52402;52.670;6.750;2023-02-24T10:39:48;4.60;99.90
60293;DHT22;52402;52.670;6.750;2023-02-24T10:42:31;4.60;99.90
60293;DHT22;52402;52.670;6.750;2023-02-24T10:45:28;4.60;99.90
60293;DHT22;52402;52.670;6.750;2023-02-24T10:47:57;4.70;99.90
60293;DHT22;52402;52.670;6.750;2023-02-24T10:50:37;4.70;99.90
60293;DHT22;52402;52.670;6.750;2023-02-24T10:53:17;4.80;99.90
60293;DHT22;52402;52.670;6.750;2023-02-24T10:56:04;4.80;99.90
60293;DHT22;52402;52.670;6.750;2023-02-24T10:59:01;4.90;99.90
60293;DHT22;52402;52.670;6.750;2023-02-24T11:02:00;4.90;99.90
60293;DHT22;52402;52.670;6.750;2023-02-24T11:04:38;4.90;99.90
60293;DHT22;52402;52.670;6.750;2023-02-24T11:07:22;5.00;99.90
60293;DHT22;52402;52.670;6.750;2023-02-24T11:10:16;5.00;99.90
60293;DHT22;52402;52.670;6.750;2023-02-24T11:12:53;5.10;99.90
60293;DHT22;52402;52.670;6.750;2023-02-24T11:15:44;5.10;99.90
60293;DHT22;52402;52.670;6.750;2023-02-24T11:18:30;5.20;99.90
60293;DHT22;52402;52.670;6.750;2023-02-24T11:21:04;5.30;99.90
60293;DHT22;52402;52.670;6.750;2023-02-24T11:23:45;5.40;99.90
60293;DHT22;52402;52.670;6.750;2023-02-24T11:26:13;5.60;99.90
60293;DHT22;52402;52.670;6.750;2023-02-24T11:32:02;6.00;99.90
60293;DHT22;52402;52.670;6.750;2023-02-24T11:34:54;6.00;99.90
60293;DHT22;52402;52.670;6.750;2023-02-24T11:37:44;6.20;99.90
60293;DHT22;52402;52.670;6.750;2023-02-24T11:40:22;6.50;99.90
60293;DHT22;52402;52.670;6.750;2023-02-24T11:42:57;6.70;99.90
60293;DHT22;52402;52.670;6.750;2023-02-24T11:51:15;7.00;99.90
60293;DHT22;52402;52.670;6.750;2023-02-24T11:53:52;7.10;99.90
60293;DHT22;52402;52.670;6.750;2023-02-24T11:56:26;7.20;99.90
60293;DHT22;52402;52.670;6.750;2023-02-24T12:01:35;7.40;99.90
60293;DHT22;52402;52.670;6.750;2023-02-24T12:04:16;7.50;99.90
60293;DHT22;52402;52.670;6.750;2023-02-24T12:07:06;7.50;99.90
60293;DHT22;52402;52.670;6.750;2023-02-24T12:09:42;7.60;99.90
60293;DHT22;52402;52.670;6.750;2023-02-24T12:12:16;7.80;99.90
60293;DHT22;52402;52.670;6.750;2023-02-24T12:14:53;8.00;99.90
60293;DHT22;52402;52.670;6.750;2023-02-24T12:17:49;8.20;99.90
60293;DHT22;52402;52.670;6.750;2023-02-24T12:20:28;8.20;99.90
60293;DHT22;52402;52.670;6.750;2023-02-24T12:23:11;8.20;99.90
60293;DHT22;52402;52.670;6.750;2023-02-24T12:25:53;8.10;99.90
60293;DHT22;52402;52.670;6.750;2023-02-24T12:31:43;8.10;99.90
60293;DHT22;52402;52.670;6.750;2023-02-24T12:37:33;8.10;99.90
60293;DHT22;52402;52.670;6.750;2023-02-24T12:45:21;8.20;99.90
60293;DHT22;52402;52.670;6.750;2023-02-24T12:53:27;8.30;99.90
60293;DHT22;52402;52.670;6.750;2023-02-24T12:58:35;8.70;99.90
60293;DHT22;52402;52.670;6.750;2023-02-24T13:01:28;8.90;99.90
60293;DHT22;52402;52.670;6.750;2023-02-24T13:06:43;9.10;99.90
60293;DHT22;52402;52.670;6.750;2023-02-24T13:12:26;9.00;99.90
60293;DHT22;52402;52.670;6.750;2023-02-24T13:14:52;8.60;99.90
60293;DHT22;52402;52.670;6.750;2023-02-24T13:17:21;8.20;99.90
60293;DHT22;52402;52.670;6.750;2023-02-24T13:19:48;7.70;99.90
60293;DHT22;52402;52.670;6.750;2023-02-24T13:24:54;7.50;99.90
60293;DHT22;52402;52.670;6.750;2023-02-24T13:27:29;7.50;99.90
60293;DHT22;52402;52.670;6.750;2023-02-24T13:30:03;7.50;99.90
60293;DHT22;52402;52.670;6.750;2023-02-24T13:32:36;7.50;99.90
60293;DHT22;52402;52.670;6.750;2023-02-24T13:35:05;7.50;99.90
60293;DHT22;52402;52.670;6.750;2023-02-24T13:37:35;7.60;99.90
60293;DHT22;52402;52.670;6.750;2023-02-24T13:42:37;7.70;99.90
60293;DHT22;52402;52.670;6.750;2023-02-24T13:47:50;7.70;99.90
60293;DHT22;52402;52.670;6.750;2023-02-24T13:50:23;7.70;99.90
60293;DHT22;52402;52.670;6.750;2023-02-24T13:52:56;7.60;99.90
60293;DHT22;52402;52.670;6.750;2023-02-24T13:56:30;7.70;99.90
60293;DHT22;52402;52.670;6.750;2023-02-24T14:01:57;7.80;99.90
60293;DHT22;52402;52.670;6.750;2023-02-24T14:04:26;7.90;99.90
60293;DHT22;52402;52.670;6.750;2023-02-24T14:06:55;7.90;99.90
60293;DHT22;52402;52.670;6.750;2023-02-24T14:09:25;8.10;99.90
60293;DHT22;52402;52.670;6.750;2023-02-24T14:12:06;8.20;99.90
60293;DHT22;52402;52.670;6.750;2023-02-24T14:14:36;8.20;99.90
60293;DHT22;52402;52.670;6.750;2023-02-24T14:17:02;8.30;99.90
60293;DHT22;52402;52.670;6.750;2023-02-24T14:19:27;8.20;99.90
60293;DHT22;52402;52.670;6.750;2023-02-24T14:21:55;8.10;99.90
60293;DHT22;52402;52.670;6.750;2023-02-24T14:24:21;7.90;99.90
60293;DHT22;52402;52.670;6.750;2023-02-24T14:26:50;7.70;99.90
60293;DHT22;52402;52.670;6.750;2023-02-24T14:29:19;7.70;99.90
60293;DHT22;52402;52.670;6.750;2023-02-24T14:31:51;7.60;99.90
60293;DHT22;52402;52.670;6.750;2023-02-24T14:34:21;7.60;99.90
60293;DHT22;52402;52.670;6.750;2023-02-24T14:36:49;7.60;99.90
60293;DHT22;52402;52.670;6.750;2023-02-24T14:41:41;7.60;99.90
60293;DHT22;52402;52.670;6.750;2023-02-24T14:44:25;7.60;99.90
60293;DHT22;52402;52.670;6.750;2023-02-24T14:46:56;7.60;99.90
60293;DHT22;52402;52.670;6.750;2023-02-24T14:49:26;7.60;99.90
60293;DHT22;52402;52.670;6.750;2023-02-24T14:55:00;7.50;99.90
60293;DHT22;52402;52.670;6.750;2023-02-24T14:57:22;7.50;99.90
60293;DHT22;52402;52.670;6.750;2023-02-24T14:59:52;7.40;99.90
60293;DHT22;52402;52.670;6.750;2023-02-24T15:02:22;7.40;99.90
60293;DHT22;52402;52.670;6.750;2023-02-24T15:04:52;7.40;99.90
60293;DHT22;52402;52.670;6.750;2023-02-24T15:07:28;7.30;99.90
60293;DHT22;52402;52.670;6.750;2023-02-24T15:09:55;7.30;99.90
60293;DHT22;52402;52.670;6.750;2023-02-24T15:15:05;7.20;99.90
60293;DHT22;52402;52.670;6.750;2023-02-24T15:17:32;7.10;99.90
60293;DHT22;52402;52.670;6.750;2023-02-24T15:20:02;6.60;99.90
60293;DHT22;52402;52.670;6.750;2023-02-24T15:22:32;6.20;99.90
60293;DHT22;52402;52.670;6.750;2023-02-24T15:25:21;5.90;99.90
60293;DHT22;52402;52.670;6.750;2023-02-24T15:27:58;5.70;99.90
60293;DHT22;52402;52.670;6.750;2023-02-24T15:30:39;5.50;99.90
60293;DHT22;52402;52.670;6.750;2023-02-24T15:33:22;5.50;99.90
60293;DHT22;52402;52.670;6.750;2023-02-24T15:35:57;5.50;99.90
60293;DHT22;52402;52.670;6.750;2023-02-24T15:40:59;5.60;99.90
60293;DHT22;52402;52.670;6.750;2023-02-24T15:43:43;5.60;99.90
60293;DHT22;52402;52.670;6.750;2023-02-24T15:46:28;5.80;99.90
60293;DHT22;52402;52.670;6.750;2023-02-24T15:48:54;5.70;99.90
60293;DHT22;52402;52.670;6.750;2023-02-24T15:51:28;5.70;99.90
60293;DHT22;52402;52.670;6.750;2023-02-24T15:53:55;5.70;99.90
60293;DHT22;52402;52.670;6.750;2023-02-24T15:56:20;5.70;99.90
60293;DHT22;52402;52.670;6.750;2023-02-24T15:58:46;5.80;99.90
60293;DHT22;52402;52.670;6.750;2023-02-24T16:01:12;5.70;99.90
60293;DHT22;52402;52.670;6.750;2023-02-24T16:03:38;5.70;99.90
60293;DHT22;52402;52.670;6.750;2023-02-24T16:06:04;5.70;99.90
60293;DHT22;52402;52.670;6.750;2023-02-24T16:08:30;5.60;99.90
60293;DHT22;52402;52.670;6.750;2023-02-24T16:10:57;5.60;99.90
60293;DHT22;52402;52.670;6.750;2023-02-24T16:13:24;5.60;99.90
60293;DHT22;52402;52.670;6.750;2023-02-24T16:15:50;5.60;99.90
60293;DHT22;52402;52.670;6.750;2023-02-24T16:18:19;5.60;99.90
60293;DHT22;52402;52.670;6.750;2023-02-24T16:20:45;5.60;99.90
60293;DHT22;52402;52.670;6.750;2023-02-24T16:23:19;5.50;99.90
60293;DHT22;52402;52.670;6.750;2023-02-24T16:25:46;5.50;99.90
60293;DHT22;52402;52.670;6.750;2023-02-24T16:28:17;5.60;99.90
60293;DHT22;52402;52.670;6.750;2023-02-24T16:30:44;5.50;99.90
60293;DHT22;52402;52.670;6.750;2023-02-24T16:33:13;5.50;99.90
60293;DHT22;52402;52.670;6.750;2023-02-24T16:35:41;5.50;99.90
60293;DHT22;52402;52.670;6.750;2023-02-24T16:38:14;5.40;99.90
60293;DHT22;52402;52.670;6.750;2023-02-24T16:40:42;5.40;99.90
60293;DHT22;52402;52.670;6.750;2023-02-24T16:43:08;5.40;99.90
60293;DHT22;52402;52.670;6.750;2023-02-24T16:45:34;5.40;99.90
60293;DHT22;52402;52.670;6.750;2023-02-24T16:48:04;5.40;99.90
60293;DHT22;52402;52.670;6.750;2023-02-24T16:50:34;5.40;99.90
60293;DHT22;52402;52.670;6.750;2023-02-24T16:53:00;5.30;99.90
60293;DHT22;52402;52.670;6.750;2023-02-24T16:55:26;5.30;99.90
60293;DHT22;52402;52.670;6.750;2023-02-24T16:57:52;5.20;99.90
60293;DHT22;52402;52.670;6.750;2023-02-24T17:00:18;5.20;99.90
60293;DHT22;52402;52.670;6.750;2023-02-24T17:02:46;5.20;99.90
60293;DHT22;52402;52.670;6.750;2023-02-24T17:05:26;5.10;99.90
60293;DHT22;52402;52.670;6.750;2023-02-24T17:07:53;5.10;99.90
60293;DHT22;52402;52.670;6.750;2023-02-24T17:10:21;5.00;99.90
60293;DHT22;52402;52.670;6.750;2023-02-24T17:12:47;5.00;99.90
60293;DHT22;52402;52.670;6.750;2023-02-24T17:15:23;5.00;99.90
60293;DHT22;52402;52.670;6.750;2023-02-24T17:17:49;5.00;99.90
60293;DHT22;52402;52.670;6.750;2023-02-24T17:20:17;5.00;99.90
60293;DHT22;52402;52.670;6.750;2023-02-24T17:22:44;5.00;99.90
60293;DHT22;52402;52.670;6.750;2023-02-24T17:25:17;5.00;99.90
60293;DHT22;52402;52.670;6.750;2023-02-24T17:27:43;5.00;99.90
60293;DHT22;52402;52.670;6.750;2023-02-24T17:30:14;5.00;99.90
60293;DHT22;52402;52.670;6.750;2023-02-24T17:32:40;5.00;99.90
60293;DHT22;52402;52.670;6.750;2023-02-24T17:35:06;5.00;99.90
60293;DHT22;52402;52.670;6.750;2023-02-24T17:37:32;5.00;99.90
60293;DHT22;52402;52.670;6.750;2023-02-24T17:39:57;5.10;99.90
60293;DHT22;52402;52.670;6.750;2023-02-24T17:42:23;5.10;99.90
60293;DHT22;52402;52.670;6.750;2023-02-24T17:44:48;5.10;99.90
60293;DHT22;52402;52.670;6.750;2023-02-24T17:47:14;5.10;99.90
60293;DHT22;52402;52.670;6.750;2023-02-24T17:49:40;5.10;99.90
60293;DHT22;52402;52.670;6.750;2023-02-24T17:52:05;5.10;99.90
60293;DHT22;52402;52.670;6.750;2023-02-24T17:54:31;5.00;99.90
60293;DHT22;52402;52.670;6.750;2023-02-24T17:56:56;5.00;99.90
60293;DHT22;52402;52.670;6.750;2023-02-24T17:59:22;4.90;99.90